Havensville, KS (66432)

3:47 PM CDT on March 31, 2015 (GMT -0500)
Wilson's Direct | | Change Station
CLOSE
Current Station
Personal Weather Station
Location: Holton, KS
Elevation: 1273 ft
Nearby Weather Stations

Elev 1273 ft 39.43 °N, 95.85 °W | Updated 0 second ago

Clear
Clear
75.9 °F
Feels Like 77 °F
N
4.2
Wind Variable Wind from WSW
Gusts 7.3 mph

Today
High -- | Low -- °F
--% Chance of Precip.
Yesterday
High -- | Low -- °F
Precip. -- in
7:10 AM 7:47 PM
Waxing Gibbous, 88% visible
Pressure 29.94 in
Visibility 10.0 miles
Clouds Clear
Heat Index 77 °F
Dew Point 37 °F
Humidity 25%
Rainfall 0.00 in
Snow Depth Not available.
UV 8 out of 12
Pollen 9.40 out of 12
Air Quality Not available.
Flu Activity Not available.
METAR KMHK 311952Z 07004KT 10SM CLR 25/00 A2995 RMK AO2 SLP139 T02500000

More Conditions Fewer Conditions

Pressure 29.94 in
Visibility 10.0 miles
Clouds Clear
Heat Index 77 °F
Dew Point 37 °F
Humidity 25%
Rainfall 0.00 in
Snow Depth Not available.
UV 8 out of 12
Pollen 9.40 out of 12
Air Quality Not available.
Flu Activity Not available.
METAR KMHK 311952Z 07004KT 10SM CLR 25/00 A2995 RMK AO2 SLP139 T02500000

More Conditions Fewer Conditions

10-Day Weather Forecast

Almanac

Astronomy

Mar. 31, 2015 Rise Set
Actual Time
Civil Twilight
Nautical Twilight
Astronomical Twilight
Moon
Length of Visible Light
Length of Day
Tomorrow will be .
, % of the Moon is Illuminated

Today's Extremes

State Highs State Lows

Community

WunderPhotos

Upload Photos

1,809,826 photos uploaded!

WunderBlogs® & News

Nearby

Air Quality

  Air Quality AQ Index Pollutant
Not available.

Snow Depth

Station Depth Elevation

Earthquake Activity

City Distance Mag. Time & Date
Minimum magnitude displayed is 2.5.

Coastal Water Temperatures

Place Temperature

Stations

Nearby Weather Stations

Station Location Temp. Windchill Dew Point Humidity Wind Precip. Elev Updated Type